createdAt,value
2018-04-26T00:02:58.391Z,66.29
2018-04-26T00:07:59.709Z,66.10
2018-04-26T00:13:01.033Z,66.48
2018-04-26T00:18:02.354Z,66.80
2018-04-26T00:23:03.684Z,66.27
2018-04-26T00:28:05.035Z,66.71
2018-04-26T00:33:06.359Z,66.25
2018-04-26T00:38:07.706Z,66.72
2018-04-26T00:43:09.816Z,66.56
2018-04-26T00:48:11.147Z,66.41
2018-04-26T00:53:12.477Z,66.55
2018-04-26T00:58:14.587Z,66.51
2018-04-26T01:03:16.643Z,67.03
2018-04-26T01:08:17.982Z,67.14
2018-04-26T01:13:20.059Z,66.80
2018-04-26T01:18:21.398Z,66.57
2018-04-26T01:23:22.722Z,65.81
2018-04-26T01:28:24.083Z,65.11
2018-04-26T01:33:25.406Z,64.79
2018-04-26T01:38:26.730Z,64.38
2018-04-26T01:43:30.886Z,64.48
2018-04-26T01:48:32.197Z,64.43
2018-04-26T01:53:34.254Z,64.18
2018-04-26T01:58:35.601Z,63.96
2018-04-26T02:03:36.917Z,63.71
2018-04-26T02:08:38.268Z,64.00
2018-04-26T02:13:39.611Z,64.39
2018-04-26T02:18:40.955Z,64.33
2018-04-26T02:23:42.277Z,64.20
2018-04-26T02:28:43.590Z,63.94
2018-04-26T02:33:44.908Z,63.88
2018-04-26T02:38:46.950Z,63.94
2018-04-26T02:43:48.286Z,64.00
2018-04-26T02:48:49.615Z,64.07
2018-04-26T02:53:50.914Z,64.23
2018-04-26T02:58:52.252Z,64.22
2018-04-26T03:03:53.558Z,64.27
2018-04-26T03:08:55.606Z,64.62
2018-04-26T03:13:57.981Z,64.72
2018-04-26T03:19:00.049Z,65.60
2018-04-26T03:24:01.367Z,65.99
2018-04-26T03:29:03.439Z,66.20
2018-04-26T03:34:04.865Z,66.64
2018-04-26T03:39:06.197Z,66.91
2018-04-26T03:44:07.498Z,67.53
2018-04-26T03:49:08.806Z,67.74
2018-04-26T03:54:10.167Z,67.97
2018-04-26T03:59:11.531Z,69.00
2018-04-26T04:04:31.080Z,70.06
2018-04-26T04:09:32.414Z,71.13
2018-04-26T04:14:34.470Z,71.37
2018-04-26T04:19:35.779Z,70.97
2018-04-26T04:24:37.098Z,70.19
2018-04-26T04:29:45.350Z,70.61
2018-04-26T04:34:46.670Z,70.96
2018-04-26T04:39:47.995Z,70.50
2018-04-26T04:44:49.331Z,70.08
2018-04-26T04:49:51.407Z,70.02
2018-04-26T04:54:52.744Z,70.00
2018-04-26T04:59:54.126Z,70.04
2018-04-26T05:04:56.175Z,69.93
2018-04-26T05:09:57.475Z,70.53
2018-04-26T05:14:58.795Z,70.50
2018-04-26T05:20:00.150Z,70.10
2018-04-26T05:25:01.451Z,70.29
2018-04-26T05:30:02.875Z,69.57
2018-04-26T05:35:04.162Z,69.92
2018-04-26T05:40:06.209Z,70.11
2018-04-26T05:45:07.520Z,70.88
2018-04-26T05:50:08.851Z,71.37
2018-04-26T05:55:10.186Z,71.48
2018-04-26T06:00:11.546Z,70.91
2018-04-26T06:05:12.864Z,70.67
2018-04-26T06:10:14.162Z,69.82
2018-04-26T06:15:15.478Z,68.27
2018-04-26T06:20:16.788Z,67.42
2018-04-26T06:25:18.853Z,67.04
2018-04-26T06:30:20.162Z,66.41
2018-04-26T06:35:21.484Z,67.08
2018-04-26T06:40:22.783Z,68.10
2018-04-26T06:45:24.112Z,68.36
2018-04-26T06:50:25.434Z,69.44
2018-04-26T06:55:27.499Z,69.42
2018-04-26T07:00:28.901Z,69.87
2018-04-26T07:05:30.250Z,69.70
2018-04-26T07:10:31.575Z,69.34
2018-04-26T07:15:32.870Z,69.85
2018-04-26T07:20:34.178Z,68.77
2018-04-26T07:25:35.494Z,67.64
2018-04-26T07:30:36.819Z,68.76
2018-04-26T07:35:38.131Z,69.97
2018-04-26T07:40:39.458Z,70.78
2018-04-26T07:45:41.523Z,70.21
2018-04-26T07:50:42.897Z,70.33
2018-04-26T07:55:44.218Z,70.00
2018-04-26T08:00:45.557Z,69.29
2018-04-26T08:05:46.850Z,67.67
2018-04-26T08:10:48.191Z,66.45
2018-04-26T08:15:49.512Z,65.21
2018-04-26T08:20:50.839Z,64.17
2018-04-26T08:25:52.991Z,65.30
2018-04-26T08:30:55.039Z,66.46
2018-04-26T08:35:56.366Z,66.02
2018-04-26T08:40:57.660Z,64.86
2018-04-26T08:45:58.978Z,63.80
2018-04-26T08:51:00.299Z,64.99
2018-04-26T08:56:01.627Z,66.01
2018-04-26T09:01:03.003Z,63.84
2018-04-26T09:06:04.330Z,61.02
2018-04-26T09:11:06.385Z,59.46
2018-04-26T09:16:07.755Z,60.29
2018-04-26T09:21:09.074Z,60.36
2018-04-26T09:26:10.411Z,60.65
2018-04-26T09:31:11.735Z,61.17
2018-04-26T09:36:13.067Z,61.77
2018-04-26T09:41:15.129Z,62.40
2018-04-26T09:46:16.460Z,62.34
2018-04-26T09:51:17.750Z,62.57
2018-04-26T09:56:19.799Z,60.93
2018-04-26T10:01:27.066Z,61.11
2018-04-26T10:06:30.290Z,58.65
2018-04-26T10:11:31.601Z,57.50
2018-04-26T10:16:39.838Z,56.87
2018-04-26T10:21:41.199Z,55.86
2018-04-26T10:26:42.515Z,55.94
2018-04-26T10:31:43.827Z,52.60
2018-04-26T10:36:45.900Z,53.44
2018-04-26T10:41:47.210Z,49.32
2018-04-26T10:46:48.543Z,51.00
2018-04-26T10:51:49.867Z,54.27
2018-04-26T10:56:51.194Z,57.64
2018-04-26T11:01:53.253Z,59.67
2018-04-26T11:06:54.561Z,59.49
2018-04-26T11:11:55.882Z,59.39
2018-04-26T11:16:57.926Z,59.44
2018-04-26T11:21:59.256Z,57.72
2018-04-26T11:27:00.587Z,56.99
2018-04-26T11:32:01.921Z,54.98
2018-04-26T11:37:03.283Z,54.69
2018-04-26T11:42:04.619Z,54.80
2018-04-26T11:47:05.960Z,56.12
2018-04-26T11:52:07.289Z,55.60
2018-04-26T11:57:08.629Z,54.81
2018-04-26T12:02:09.962Z,52.12
2018-04-26T12:07:11.274Z,47.62
2018-04-26T12:12:12.602Z,47.92
2018-04-26T12:17:13.916Z,48.49
2018-04-26T12:22:15.246Z,47.26
2018-04-26T12:27:17.314Z,47.46
2018-04-26T12:32:18.634Z,47.44
2018-04-26T12:37:19.957Z,47.07
2018-04-26T12:42:21.340Z,44.44
2018-04-26T12:47:22.595Z,44.64
2018-04-26T12:52:23.887Z,46.78
2018-04-26T12:57:25.206Z,46.94
2018-04-26T13:02:26.540Z,47.43
2018-04-26T13:07:27.843Z,47.40
2018-04-26T13:12:29.161Z,48.58
2018-04-26T13:17:31.204Z,54.66
2018-04-26T13:22:32.542Z,61.19
2018-04-26T13:27:33.846Z,64.54
2018-04-26T13:32:35.890Z,66.86
2018-04-26T13:37:37.189Z,68.75
2018-04-26T13:42:38.505Z,66.50
2018-04-26T13:47:39.846Z,65.92
2018-04-26T13:52:41.178Z,63.15
2018-04-26T13:57:42.519Z,61.95
2018-04-26T14:02:43.845Z,61.32
2018-04-26T14:07:45.138Z,58.90
2018-04-26T14:12:46.620Z,58.80
2018-04-26T14:17:48.011Z,58.21
2018-04-26T14:22:49.340Z,58.07
2018-04-26T14:27:51.390Z,57.83
2018-04-26T14:32:52.721Z,57.17
2018-04-26T14:37:54.026Z,54.93
2018-04-26T14:42:56.185Z,55.90
2018-04-26T14:47:57.493Z,57.61
2018-04-26T14:52:58.801Z,58.14
2018-04-26T14:58:00.250Z,58.00
2018-04-26T15:03:01.626Z,58.00
2018-04-26T15:08:02.962Z,57.23
2018-04-26T15:13:04.535Z,53.02
2018-04-26T15:18:05.863Z,52.23
2018-04-26T15:23:07.922Z,51.94
2018-04-26T15:28:09.320Z,52.75
2018-04-26T15:33:10.853Z,52.17
2018-04-26T15:38:12.187Z,50.90
2018-04-26T15:43:13.509Z,50.19
2018-04-26T15:48:14.857Z,50.24
2018-04-26T15:53:34.579Z,49.42
2018-04-26T16:04:36.615Z,52.85
2018-04-26T16:09:48.890Z,54.50
2018-04-26T16:15:08.654Z,55.93
2018-04-26T16:20:17.902Z,57.10
2018-04-26T16:25:21.197Z,56.81
2018-04-26T16:30:41.991Z,52.37
2018-04-26T16:36:01.938Z,51.94
2018-04-26T16:41:03.250Z,50.60
2018-04-26T16:46:04.663Z,49.51
2018-04-26T16:51:06.700Z,48.71
2018-04-26T16:56:08.005Z,48.40
2018-04-26T17:01:09.342Z,47.83
2018-04-26T17:06:10.672Z,49.05
2018-04-26T17:11:11.979Z,50.12
2018-04-26T17:16:13.282Z,50.84
2018-04-26T17:21:14.602Z,52.04
2018-04-26T17:26:15.947Z,54.50
2018-04-26T17:31:17.775Z,59.56
2018-04-26T17:36:19.079Z,61.32
2018-04-26T17:41:21.119Z,62.14
2018-04-26T17:46:22.442Z,62.42
2018-04-26T17:51:23.750Z,64.80
2018-04-26T17:56:25.067Z,66.43
2018-04-26T18:01:27.115Z,65.16
2018-04-26T18:06:28.438Z,65.54
2018-04-26T18:11:29.817Z,65.45
2018-04-26T18:16:31.127Z,65.99
2018-04-26T18:21:33.173Z,66.22
2018-04-26T18:26:34.470Z,66.23
2018-04-26T18:31:35.763Z,65.83
2018-04-26T18:36:37.075Z,65.33
2018-04-26T18:41:38.393Z,66.25
2018-04-26T18:46:40.474Z,65.82
2018-04-26T18:51:41.807Z,65.38
2018-04-26T18:56:43.144Z,65.97
2018-04-26T19:01:44.443Z,65.41
2018-04-26T19:06:45.758Z,65.04
2018-04-26T19:11:47.814Z,65.39
2018-04-26T19:16:49.106Z,65.30
2018-04-26T19:21:50.406Z,64.73
2018-04-26T19:26:51.722Z,64.76
2018-04-26T19:31:53.770Z,64.63
2018-04-26T19:36:55.145Z,64.91
2018-04-26T19:41:56.446Z,64.86
2018-04-26T19:46:57.750Z,65.48
2018-04-26T19:51:59.046Z,65.67
2018-04-26T19:57:00.366Z,65.71
2018-04-26T20:02:01.654Z,65.74
2018-04-26T20:07:02.966Z,66.36
2018-04-26T20:12:05.002Z,67.00
2018-04-26T20:17:06.310Z,67.77
2018-04-26T20:22:07.623Z,68.11
2018-04-26T20:27:08.917Z,67.60
2018-04-26T20:32:10.230Z,67.07
2018-04-26T20:37:12.422Z,66.66
2018-04-26T20:42:13.953Z,66.77
2018-04-26T20:47:15.275Z,67.16
2018-04-26T20:52:16.571Z,67.50
2018-04-26T20:57:17.881Z,67.90
2018-04-26T21:02:19.226Z,68.06
2018-04-26T21:07:20.497Z,68.45
2018-04-26T21:12:21.802Z,68.88
2018-04-26T21:17:23.108Z,69.41
2018-04-26T21:22:24.416Z,70.21
2018-04-26T21:27:25.711Z,70.50
2018-04-26T21:32:27.024Z,70.41
2018-04-26T21:37:28.322Z,70.71
2018-04-26T21:42:29.614Z,71.00
2018-04-26T21:47:30.983Z,71.42
2018-04-26T21:52:39.027Z,71.36
2018-04-26T21:57:47.140Z,71.28
2018-04-26T22:02:48.551Z,71.29
2018-04-26T22:07:50.052Z,71.22
2018-04-26T22:12:51.346Z,70.80
2018-04-26T22:17:53.405Z,71.09
2018-04-26T22:22:54.686Z,70.75
2018-04-26T22:27:55.986Z,70.47
2018-04-26T22:32:57.390Z,70.29
2018-04-26T22:37:58.678Z,70.48
2018-04-26T22:42:59.983Z,70.01
2018-04-26T22:48:01.278Z,69.84
2018-04-26T22:53:02.581Z,69.75
2018-04-26T22:58:04.659Z,69.42
2018-04-26T23:03:05.959Z,69.29
2018-04-26T23:08:07.267Z,69.45
2018-04-26T23:13:09.314Z,69.66
2018-04-26T23:18:10.626Z,69.61
2018-04-26T23:23:11.938Z,69.75
2018-04-26T23:28:13.235Z,69.77
2018-04-26T23:33:15.274Z,69.78
2018-04-26T23:38:16.584Z,69.90
2018-04-26T23:43:17.881Z,69.75
2018-04-26T23:48:19.176Z,69.71
2018-04-26T23:53:20.482Z,69.83
2018-04-26T23:58:21.799Z,69.82
